createdAt,value
2023-01-18T00:02:32.270Z,163.27
2023-01-18T00:05:15.626Z,161.88
2023-01-18T00:08:05.398Z,167.15
2023-01-18T00:10:47.984Z,165.13
2023-01-18T00:13:36.313Z,152.50
2023-01-18T00:16:21.030Z,154.75
2023-01-18T00:19:14.369Z,152.68
2023-01-18T00:22:02.704Z,160.00
2023-01-18T00:24:44.334Z,147.07
2023-01-18T00:27:26.630Z,154.50
2023-01-18T00:30:15.347Z,143.65
2023-01-18T00:32:59.912Z,124.05
2023-01-18T00:35:49.390Z,113.47
2023-01-18T00:38:32.253Z,108.75
2023-01-18T00:41:21.323Z,99.68
2023-01-18T00:44:03.598Z,77.90
2023-01-18T00:46:52.279Z,91.30
2023-01-18T00:49:47.304Z,78.93
2023-01-18T00:52:36.218Z,72.88
2023-01-18T00:55:18.754Z,86.82
2023-01-18T00:58:07.342Z,74.40
2023-01-18T01:00:49.697Z,78.97
2023-01-18T01:03:58.263Z,83.00
2023-01-18T01:06:46.140Z,87.93
2023-01-18T01:09:38.330Z,91.05
2023-01-18T01:12:39.047Z,104.28
2023-01-18T01:15:46.314Z,85.93
2023-01-18T01:18:53.376Z,87.32
2023-01-18T01:22:00.352Z,95.88
2023-01-18T01:25:02.073Z,89.35
2023-01-18T01:27:51.309Z,89.82
2023-01-18T01:30:33.621Z,95.28
2023-01-18T01:33:22.542Z,99.65
2023-01-18T01:36:12.628Z,92.40
2023-01-18T01:39:01.464Z,102.20
2023-01-18T01:41:43.596Z,105.85
2023-01-18T01:44:42.333Z,89.78
2023-01-18T01:47:35.654Z,99.55
2023-01-18T01:50:46.264Z,94.60
2023-01-18T01:53:35.262Z,102.65
2023-01-18T01:56:18.642Z,101.32
2023-01-18T01:59:09.276Z,91.30
2023-01-18T02:01:53.841Z,90.43
2023-01-18T02:04:43.369Z,90.28
2023-01-18T02:07:34.299Z,91.57
2023-01-18T02:10:17.422Z,96.57
2023-01-18T02:13:07.255Z,93.28
2023-01-18T02:16:07.391Z,95.75
2023-01-18T02:19:28.854Z,97.75
2023-01-18T02:22:55.597Z,111.88
2023-01-18T02:26:01.668Z,101.38
2023-01-18T02:28:59.261Z,105.68
2023-01-18T02:32:00.612Z,98.22
2023-01-18T02:34:52.234Z,103.78
2023-01-18T02:37:45.783Z,91.68
2023-01-18T02:41:06.339Z,97.53
2023-01-18T02:44:16.394Z,97.43
2023-01-18T02:47:22.277Z,90.45
2023-01-18T02:50:12.199Z,105.93
2023-01-18T02:52:55.443Z,107.25
2023-01-18T02:56:01.358Z,112.95
2023-01-18T02:58:59.372Z,116.30
2023-01-18T03:02:00.299Z,110.25
2023-01-18T03:05:02.302Z,117.90
2023-01-18T03:07:59.379Z,117.22
2023-01-18T03:10:47.964Z,127.40
2023-01-18T03:13:52.393Z,117.18
2023-01-18T03:17:01.721Z,112.72
2023-01-18T03:20:14.306Z,118.82
2023-01-18T03:23:28.817Z,132.10
2023-01-18T03:26:28.218Z,123.68
2023-01-18T03:29:37.329Z,118.10
2023-01-18T03:32:45.092Z,115.13
2023-01-18T03:35:34.320Z,137.55
2023-01-18T03:38:24.684Z,144.23
2023-01-18T03:41:09.249Z,145.48
2023-01-18T03:44:02.951Z,150.43
2023-01-18T03:46:47.176Z,199.55
2023-01-18T03:49:42.241Z,148.23
2023-01-18T03:52:34.313Z,143.25
2023-01-18T03:55:31.267Z,139.20
2023-01-18T03:58:25.265Z,145.50
2023-01-18T04:01:07.738Z,136.75
2023-01-18T04:03:56.331Z,136.43
2023-01-18T04:06:40.589Z,130.85
2023-01-18T04:09:29.259Z,127.47
2023-01-18T04:12:18.361Z,124.28
2023-01-18T04:15:06.561Z,127.80
2023-01-18T04:17:48.367Z,145.32
2023-01-18T04:20:36.608Z,124.10
2023-01-18T04:23:19.280Z,138.98
2023-01-18T04:26:01.556Z,130.32
2023-01-18T04:28:50.250Z,128.75
2023-01-18T04:31:39.395Z,133.65
2023-01-18T04:34:30.251Z,137.57
2023-01-18T04:37:18.569Z,147.43
2023-01-18T04:40:00.237Z,134.65
2023-01-18T04:42:48.596Z,138.13
2023-01-18T04:45:31.376Z,131.98
2023-01-18T04:48:20.105Z,138.25
2023-01-18T04:51:09.364Z,146.48
2023-01-18T04:53:52.692Z,143.30
2023-01-18T04:56:41.384Z,147.55
2023-01-18T04:59:24.697Z,137.00
2023-01-18T05:02:13.315Z,141.10
2023-01-18T05:04:55.757Z,143.52
2023-01-18T05:07:44.374Z,137.95
2023-01-18T05:10:26.558Z,135.20
2023-01-18T05:13:15.323Z,129.50
2023-01-18T05:15:57.630Z,146.00
2023-01-18T05:18:46.301Z,142.52
2023-01-18T05:21:29.634Z,146.73
2023-01-18T05:24:18.257Z,157.18
2023-01-18T05:27:00.578Z,143.80
2023-01-18T05:29:49.248Z,130.77
2023-01-18T05:32:31.565Z,133.27
2023-01-18T05:35:20.154Z,144.65
2023-01-18T05:38:02.609Z,141.38
2023-01-18T05:40:53.375Z,148.18
2023-01-18T05:43:36.696Z,137.48
2023-01-18T05:46:25.772Z,144.13
2023-01-18T05:49:07.676Z,130.50
2023-01-18T05:52:03.341Z,152.68
2023-01-18T05:54:51.577Z,151.63
2023-01-18T05:57:34.290Z,149.13
2023-01-18T06:00:16.997Z,151.85
2023-01-18T06:03:10.151Z,134.90
2023-01-18T06:06:00.295Z,130.93
2023-01-18T06:08:43.216Z,151.23
2023-01-18T06:11:38.343Z,154.93
2023-01-18T06:14:20.470Z,143.95
2023-01-18T06:17:09.250Z,137.90
2023-01-18T06:19:51.468Z,135.05
2023-01-18T06:22:40.331Z,130.32
2023-01-18T06:25:28.660Z,126.43
2023-01-18T06:28:12.302Z,121.18
2023-01-18T06:31:05.898Z,115.82
2023-01-18T06:33:47.374Z,125.93
2023-01-18T06:36:35.613Z,130.15
2023-01-18T06:39:17.307Z,126.78
2023-01-18T06:42:05.622Z,103.72
2023-01-18T06:44:48.307Z,118.25
2023-01-18T06:47:36.586Z,119.40
2023-01-18T06:50:32.245Z,123.18
2023-01-18T06:53:21.258Z,122.10
2023-01-18T06:56:11.359Z,128.82
2023-01-18T06:59:03.363Z,132.05
2023-01-18T07:01:45.732Z,122.63
2023-01-18T07:04:35.663Z,132.15
2023-01-18T07:07:24.245Z,120.72
2023-01-18T07:10:16.115Z,118.38
2023-01-18T07:12:58.844Z,130.68
2023-01-18T07:15:48.383Z,123.50
2023-01-18T07:18:31.601Z,118.93
2023-01-18T07:21:21.380Z,165.80
2023-01-18T07:24:04.600Z,128.73
2023-01-18T07:26:53.298Z,105.80
2023-01-18T07:29:35.613Z,116.10
2023-01-18T07:32:24.251Z,113.40
2023-01-18T07:35:06.564Z,99.85
2023-01-18T07:38:00.337Z,93.45
2023-01-18T07:40:42.550Z,84.63
2023-01-18T07:43:32.409Z,91.30
2023-01-18T07:46:21.521Z,88.05
2023-01-18T07:49:13.277Z,89.47
2023-01-18T07:52:08.613Z,83.55
2023-01-18T07:54:50.474Z,68.82
2023-01-18T07:57:39.308Z,66.90
2023-01-18T08:00:28.608Z,70.90
2023-01-18T08:03:10.447Z,51.90
2023-01-18T08:05:52.735Z,64.28
2023-01-18T08:08:42.402Z,61.60
2023-01-18T08:11:24.954Z,57.53
2023-01-18T08:14:14.256Z,55.78
2023-01-18T08:17:02.594Z,65.00
2023-01-18T08:19:45.249Z,57.85
2023-01-18T08:22:27.544Z,64.53
2023-01-18T08:25:16.420Z,55.85
2023-01-18T08:28:06.528Z,57.90
2023-01-18T08:30:52.353Z,56.05
2023-01-18T08:33:39.464Z,52.83
2023-01-18T08:36:31.314Z,56.90
2023-01-18T08:39:14.617Z,42.20
2023-01-18T08:42:03.222Z,32.60
2023-01-18T08:44:45.489Z,34.47
2023-01-18T08:47:34.292Z,39.40
2023-01-18T08:50:29.098Z,50.95
2023-01-18T08:53:19.585Z,47.88
2023-01-18T08:56:01.600Z,59.28
2023-01-18T08:58:50.371Z,53.65
2023-01-18T09:01:32.645Z,68.18
2023-01-18T09:04:21.276Z,66.10
2023-01-18T09:07:03.623Z,55.08
2023-01-18T09:09:53.277Z,55.13
2023-01-18T09:12:35.787Z,56.80
2023-01-18T09:15:26.361Z,60.63
2023-01-18T09:18:09.316Z,55.67
2023-01-18T09:20:59.350Z,56.15
2023-01-18T09:23:41.567Z,62.63
2023-01-18T09:26:30.282Z,53.28
2023-01-18T09:29:12.564Z,47.83
2023-01-18T09:32:03.359Z,66.15
2023-01-18T09:34:47.345Z,66.15
2023-01-18T09:37:36.377Z,62.42
2023-01-18T09:40:30.525Z,74.35
2023-01-18T09:43:32.355Z,77.00
2023-01-18T09:46:29.221Z,66.03
2023-01-18T09:49:29.248Z,65.82
2023-01-18T09:52:40.560Z,52.05
2023-01-18T09:55:25.293Z,58.08
2023-01-18T09:58:40.475Z,60.80
2023-01-18T10:01:34.401Z,62.60
2023-01-18T10:04:33.182Z,73.68
2023-01-18T10:07:28.338Z,74.40
2023-01-18T10:10:24.714Z,66.20
2023-01-18T10:13:32.296Z,67.10
2023-01-18T10:16:22.551Z,86.35
2023-01-18T10:19:09.498Z,86.32
2023-01-18T10:22:10.631Z,93.32
2023-01-18T10:25:22.285Z,79.72
2023-01-18T10:29:00.065Z,78.57
2023-01-18T10:32:00.168Z,72.60
2023-01-18T10:34:57.346Z,83.55
2023-01-18T10:37:50.117Z,85.05
2023-01-18T10:40:39.275Z,72.43
2023-01-18T10:43:22.756Z,80.15
2023-01-18T10:46:18.411Z,67.55
2023-01-18T10:49:03.721Z,55.03
2023-01-18T10:51:54.477Z,67.05
2023-01-18T10:54:36.600Z,50.63
2023-01-18T10:57:33.599Z,62.50
2023-01-18T11:00:31.748Z,56.13
2023-01-18T11:03:23.297Z,56.53
2023-01-18T11:06:24.149Z,68.53
2023-01-18T11:09:13.342Z,58.08
2023-01-18T11:12:13.948Z,59.63
2023-01-18T11:15:03.296Z,59.40
2023-01-18T11:17:47.271Z,55.40
2023-01-18T11:20:58.255Z,54.75
2023-01-18T11:23:49.281Z,64.40
2023-01-18T11:26:37.610Z,60.63
2023-01-18T11:29:23.195Z,60.10
2023-01-18T11:32:15.757Z,53.65
2023-01-18T11:35:01.317Z,54.80
2023-01-18T11:37:51.008Z,64.28
2023-01-18T11:40:36.323Z,53.60
2023-01-18T11:43:34.489Z,49.38
2023-01-18T11:47:11.218Z,59.35
2023-01-18T11:50:28.467Z,63.28
2023-01-18T11:53:29.576Z,57.22
2023-01-18T11:56:20.332Z,62.85
2023-01-18T11:59:11.601Z,62.53
2023-01-18T12:02:32.344Z,57.30
2023-01-18T12:05:32.705Z,63.00
2023-01-18T12:08:39.250Z,64.82
2023-01-18T12:11:48.338Z,58.13
2023-01-18T12:14:59.541Z,61.67
2023-01-18T12:18:35.297Z,60.08
2023-01-18T12:21:22.133Z,65.15
2023-01-18T12:24:38.332Z,58.88
2023-01-18T12:27:32.523Z,63.28
2023-01-18T12:30:27.318Z,78.70
2023-01-18T12:33:38.041Z,82.13
2023-01-18T12:37:01.179Z,77.13
2023-01-18T12:40:12.260Z,76.35
2023-01-18T12:43:13.469Z,82.28
2023-01-18T12:46:05.201Z,82.07
2023-01-18T12:49:29.335Z,71.53
2023-01-18T12:52:29.167Z,75.00
2023-01-18T12:55:26.170Z,73.88
2023-01-18T12:58:10.664Z,76.95
2023-01-18T13:01:07.294Z,68.93
2023-01-18T13:03:55.745Z,91.07
2023-01-18T13:06:47.160Z,81.25
2023-01-18T13:09:36.907Z,84.65
2023-01-18T13:12:26.311Z,100.32
2023-01-18T13:15:23.917Z,89.32
2023-01-18T13:18:30.329Z,95.85
2023-01-18T13:21:19.188Z,93.03
2023-01-18T13:24:26.242Z,114.18
2023-01-18T13:27:17.651Z,109.85
2023-01-18T13:30:17.268Z,123.03
2023-01-18T13:33:00.945Z,109.95
2023-01-18T13:36:02.305Z,118.85
2023-01-18T13:38:55.558Z,108.60
2023-01-18T13:41:44.176Z,122.20
2023-01-18T13:44:54.248Z,99.15
2023-01-18T13:47:48.235Z,127.70
2023-01-18T13:50:43.308Z,151.90
2023-01-18T13:53:32.599Z,196.95
2023-01-18T13:56:16.206Z,228.77
2023-01-18T13:59:23.156Z,244.35
2023-01-18T14:02:21.535Z,212.32
2023-01-18T14:05:21.044Z,184.75
2023-01-18T14:08:10.275Z,168.60
2023-01-18T14:11:01.227Z,138.48
2023-01-18T14:14:13.251Z,118.13
2023-01-18T14:17:08.169Z,122.20
2023-01-18T14:20:07.234Z,129.05
2023-01-18T14:23:11.984Z,129.38
2023-01-18T14:26:21.223Z,116.22
2023-01-18T14:29:13.201Z,125.80
2023-01-18T14:32:08.209Z,117.25
2023-01-18T14:35:11.594Z,102.53
2023-01-18T14:37:54.236Z,117.32
2023-01-18T14:40:43.525Z,118.95
2023-01-18T14:43:40.265Z,105.47
2023-01-18T14:46:28.215Z,108.25
2023-01-18T14:49:17.087Z,100.35
2023-01-18T14:52:17.183Z,98.40
2023-01-18T14:55:06.691Z,98.28
2023-01-18T14:57:48.149Z,95.65
2023-01-18T15:00:37.537Z,104.28
2023-01-18T15:03:32.071Z,100.25
2023-01-18T15:06:27.558Z,119.85
2023-01-18T15:09:13.229Z,109.60
2023-01-18T15:11:58.945Z,107.15
2023-01-18T15:14:51.239Z,105.97
2023-01-18T15:17:40.218Z,97.38
2023-01-18T15:20:23.679Z,99.45
2023-01-18T15:23:13.271Z,105.65
2023-01-18T15:25:59.939Z,98.82
2023-01-18T15:28:49.267Z,106.15
2023-01-18T15:31:31.736Z,98.03
2023-01-18T15:34:23.225Z,97.00
2023-01-18T15:37:08.948Z,100.68
2023-01-18T15:40:21.246Z,104.68
2023-01-18T15:43:20.266Z,118.65
2023-01-18T15:46:03.825Z,133.40
2023-01-18T15:49:13.213Z,145.65
2023-01-18T15:52:10.191Z,140.73
2023-01-18T15:54:58.514Z,159.32
2023-01-18T15:57:44.245Z,134.38
2023-01-18T16:00:29.861Z,124.45
2023-01-18T16:03:20.174Z,113.57
2023-01-18T16:06:19.883Z,116.18
2023-01-18T16:09:06.216Z,109.15
2023-01-18T16:12:02.260Z,113.25
2023-01-18T16:14:47.318Z,107.43
2023-01-18T16:17:38.283Z,112.78
2023-01-18T16:20:24.554Z,104.95
2023-01-18T16:23:27.213Z,98.30
2023-01-18T16:26:09.518Z,101.72
2023-01-18T16:28:58.227Z,107.70
2023-01-18T16:31:52.223Z,103.20
2023-01-18T16:34:34.499Z,107.93
2023-01-18T16:37:25.234Z,98.35
2023-01-18T16:40:07.443Z,96.63
2023-01-18T16:43:12.159Z,93.95
2023-01-18T16:46:04.354Z,88.38
2023-01-18T16:48:46.358Z,95.88
2023-01-18T16:51:36.245Z,95.82
2023-01-18T16:54:18.339Z,101.15
2023-01-18T16:57:07.250Z,102.78
2023-01-18T16:59:49.708Z,125.85
2023-01-18T17:02:38.208Z,100.10
2023-01-18T17:05:21.797Z,107.20
2023-01-18T17:08:10.224Z,99.00
2023-01-18T17:10:59.467Z,100.03
2023-01-18T17:13:41.217Z,114.30
2023-01-18T17:16:36.306Z,111.03
2023-01-18T17:19:27.439Z,109.47
2023-01-18T17:22:09.229Z,102.97
2023-01-18T17:24:58.711Z,119.74
2023-01-18T17:27:40.248Z,124.88
2023-01-18T17:30:31.269Z,114.00
2023-01-18T17:33:13.626Z,120.85
2023-01-18T17:38:50.653Z,118.47
2023-01-18T17:41:40.213Z,102.13
2023-01-18T17:44:36.849Z,113.60
2023-01-18T17:47:19.473Z,107.30
2023-01-18T17:50:08.223Z,102.88
2023-01-18T17:53:03.078Z,109.00
2023-01-18T17:55:52.264Z,112.72
2023-01-18T17:58:34.594Z,115.72
2023-01-18T18:01:25.404Z,107.10
2023-01-18T18:04:07.563Z,103.50
2023-01-18T18:07:00.187Z,103.60
2023-01-18T18:09:43.890Z,112.17
2023-01-18T18:12:33.165Z,105.97
2023-01-18T18:15:15.756Z,99.25
2023-01-18T18:18:05.564Z,105.95
2023-01-18T18:20:49.574Z,109.03
2023-01-18T18:23:39.214Z,105.00
2023-01-18T18:26:24.748Z,99.75
2023-01-18T18:29:13.218Z,99.43
2023-01-18T18:32:02.258Z,99.85
2023-01-18T18:34:44.589Z,107.10
2023-01-18T18:37:34.263Z,117.13
2023-01-18T18:40:20.028Z,109.47
2023-01-18T18:43:09.494Z,113.90
2023-01-18T18:45:51.590Z,104.70
2023-01-18T18:48:40.221Z,114.65
2023-01-18T18:51:23.698Z,105.32
2023-01-18T18:54:15.203Z,110.07
2023-01-18T18:56:57.417Z,111.32
2023-01-18T18:59:46.169Z,119.05
2023-01-18T19:02:28.513Z,107.35
2023-01-18T19:05:21.225Z,112.90
2023-01-18T19:08:03.686Z,121.30
2023-01-18T19:10:52.195Z,119.13
2023-01-18T19:13:34.746Z,104.50
2023-01-18T19:16:23.233Z,113.65
2023-01-18T19:19:12.247Z,108.75
2023-01-18T19:22:03.145Z,105.90
2023-01-18T19:24:52.156Z,104.93
2023-01-18T19:27:41.211Z,105.18
2023-01-18T19:30:27.230Z,110.68
2023-01-18T19:33:16.680Z,136.60
2023-01-18T19:36:00.175Z,117.70
2023-01-18T19:38:57.756Z,137.75
2023-01-18T19:41:41.196Z,124.70
2023-01-18T19:44:29.509Z,133.52
2023-01-18T19:47:11.194Z,135.73
2023-01-18T19:49:53.646Z,161.25
2023-01-18T19:52:42.215Z,161.43
2023-01-18T19:55:30.428Z,164.90
2023-01-18T19:58:14.165Z,163.50
2023-01-18T20:01:02.735Z,162.93
2023-01-18T20:03:45.172Z,155.70
2023-01-18T20:06:27.479Z,151.50
2023-01-18T20:09:19.799Z,144.27
2023-01-18T20:12:09.527Z,131.70
2023-01-18T20:14:53.220Z,126.20
2023-01-18T20:17:43.025Z,118.85
2023-01-18T20:20:32.484Z,101.85
2023-01-18T20:23:22.156Z,95.07
2023-01-18T20:26:04.493Z,89.35
2023-01-18T20:28:53.172Z,84.90
2023-01-18T20:31:35.594Z,87.38
2023-01-18T20:34:24.191Z,84.18
2023-01-18T20:37:06.661Z,71.63
2023-01-18T20:39:55.154Z,70.13
2023-01-18T20:42:44.175Z,71.72
2023-01-18T20:45:33.502Z,63.92
2023-01-18T20:48:15.322Z,61.20
2023-01-18T20:51:06.508Z,67.65
2023-01-18T20:53:55.275Z,65.22
2023-01-18T20:56:37.399Z,76.07
2023-01-18T20:59:27.239Z,72.18
2023-01-18T21:02:09.585Z,65.75
2023-01-18T21:04:58.141Z,66.43
2023-01-18T21:07:41.761Z,62.70
2023-01-18T21:10:31.265Z,60.97
2023-01-18T21:13:18.633Z,70.70
2023-01-18T21:16:08.526Z,60.28
2023-01-18T21:18:53.734Z,65.55
2023-01-18T21:21:42.157Z,62.00
2023-01-18T21:24:31.331Z,57.45
2023-01-18T21:27:13.708Z,64.72
2023-01-18T21:30:02.226Z,70.35
2023-01-18T21:32:44.612Z,72.35
2023-01-18T21:35:33.153Z,72.70
2023-01-18T21:38:24.172Z,72.32
2023-01-18T21:41:27.405Z,72.07
2023-01-18T21:44:35.708Z,69.60
2023-01-18T21:47:18.171Z,69.50
2023-01-18T21:50:24.943Z,66.55
2023-01-18T21:53:42.060Z,63.95
2023-01-18T21:56:31.180Z,71.13
2023-01-18T21:59:13.669Z,69.70
2023-01-18T22:02:02.251Z,75.35
2023-01-18T22:05:04.641Z,71.25
2023-01-18T22:07:53.007Z,60.05
2023-01-18T22:10:35.479Z,77.82
2023-01-18T22:13:24.145Z,76.93
2023-01-18T22:16:11.458Z,68.97
2023-01-18T22:19:00.101Z,78.75
2023-01-18T22:21:42.482Z,84.68
2023-01-18T22:24:31.211Z,77.15
2023-01-18T22:27:14.549Z,73.57
2023-01-18T22:30:03.238Z,68.68
2023-01-18T22:32:45.527Z,71.68
2023-01-18T22:35:34.131Z,79.60
2023-01-18T22:38:16.430Z,64.63
2023-01-18T22:41:16.132Z,72.65
2023-01-18T22:43:58.554Z,78.32
2023-01-18T22:46:47.058Z,70.35
2023-01-18T22:49:36.164Z,68.13
2023-01-18T22:52:30.965Z,63.72
2023-01-18T22:55:20.046Z,80.88
2023-01-18T22:58:02.776Z,90.78
2023-01-18T23:00:56.179Z,74.53
2023-01-18T23:03:46.142Z,81.93
2023-01-18T23:06:36.090Z,67.68
2023-01-18T23:09:26.137Z,73.60
2023-01-18T23:12:08.407Z,81.97
2023-01-18T23:15:15.074Z,69.97
2023-01-18T23:17:57.589Z,71.55
2023-01-18T23:20:47.106Z,73.40
2023-01-18T23:23:29.311Z,68.82
2023-01-18T23:26:18.132Z,71.45
2023-01-18T23:29:07.044Z,83.88
2023-01-18T23:31:57.523Z,72.68
2023-01-18T23:34:41.841Z,69.70
2023-01-18T23:37:31.066Z,67.70
2023-01-18T23:40:39.008Z,70.53
2023-01-18T23:43:39.872Z,72.40
2023-01-18T23:46:47.121Z,78.03
2023-01-18T23:49:47.869Z,74.53
2023-01-18T23:52:55.011Z,81.20
2023-01-18T23:55:37.561Z,76.85
2023-01-18T23:58:26.178Z,89.57
